sensor_id;sensor_type;location;lat;lon;timestamp;P1;durP1;ratioP1;P2;durP2;ratioP2
31764;SDS011;18338;53.240;8.798;2023-02-01T00:01:23;15.90;;;3.05;;
31764;SDS011;18338;53.240;8.798;2023-02-01T00:03:50;18.98;;;3.67;;
31764;SDS011;18338;53.240;8.798;2023-02-01T00:06:17;14.00;;;3.55;;
31764;SDS011;18338;53.240;8.798;2023-02-01T00:08:44;14.95;;;3.83;;
31764;SDS011;18338;53.240;8.798;2023-02-01T00:11:11;18.08;;;3.58;;
31764;SDS011;18338;53.240;8.798;2023-02-01T00:13:39;19.70;;;3.80;;
31764;SDS011;18338;53.240;8.798;2023-02-01T00:16:09;15.60;;;3.55;;
31764;SDS011;18338;53.240;8.798;2023-02-01T00:18:36;20.17;;;3.72;;
31764;SDS011;18338;53.240;8.798;2023-02-01T00:21:03;16.52;;;3.42;;
31764;SDS011;18338;53.240;8.798;2023-02-01T00:23:33;20.60;;;4.03;;
31764;SDS011;18338;53.240;8.798;2023-02-01T00:26:01;12.40;;;2.70;;
31764;SDS011;18338;53.240;8.798;2023-02-01T00:28:29;15.25;;;3.22;;
31764;SDS011;18338;53.240;8.798;2023-02-01T00:30:58;12.75;;;2.78;;
31764;SDS011;18338;53.240;8.798;2023-02-01T00:33:26;13.95;;;3.67;;
31764;SDS011;18338;53.240;8.798;2023-02-01T00:35:57;16.63;;;3.97;;
31764;SDS011;18338;53.240;8.798;2023-02-01T00:38:25;16.98;;;3.65;;
31764;SDS011;18338;53.240;8.798;2023-02-01T00:40:53;17.47;;;3.77;;
31764;SDS011;18338;53.240;8.798;2023-02-01T00:43:20;17.48;;;3.72;;
31764;SDS011;18338;53.240;8.798;2023-02-01T00:45:47;15.05;;;3.28;;
31764;SDS011;18338;53.240;8.798;2023-02-01T00:48:14;14.90;;;3.72;;
31764;SDS011;18338;53.240;8.798;2023-02-01T00:50:41;18.83;;;4.32;;
31764;SDS011;18338;53.240;8.798;2023-02-01T00:53:10;22.90;;;4.38;;
31764;SDS011;18338;53.240;8.798;2023-02-01T00:55:37;17.55;;;4.00;;
31764;SDS011;18338;53.240;8.798;2023-02-01T00:58:03;20.50;;;4.10;;
31764;SDS011;18338;53.240;8.798;2023-02-01T01:00:32;12.27;;;2.70;;
31764;SDS011;18338;53.240;8.798;2023-02-01T01:02:59;15.93;;;3.75;;
31764;SDS011;18338;53.240;8.798;2023-02-01T01:05:27;17.75;;;4.80;;
31764;SDS011;18338;53.240;8.798;2023-02-01T01:07:57;17.17;;;3.60;;
31764;SDS011;18338;53.240;8.798;2023-02-01T01:10:24;23.58;;;4.78;;
31764;SDS011;18338;53.240;8.798;2023-02-01T01:12:51;20.98;;;3.72;;
31764;SDS011;18338;53.240;8.798;2023-02-01T01:15:18;17.27;;;3.65;;
31764;SDS011;18338;53.240;8.798;2023-02-01T01:17:45;13.55;;;2.65;;
31764;SDS011;18338;53.240;8.798;2023-02-01T01:20:11;19.73;;;4.80;;
31764;SDS011;18338;53.240;8.798;2023-02-01T01:22:38;19.00;;;2.92;;
31764;SDS011;18338;53.240;8.798;2023-02-01T01:25:05;19.23;;;3.80;;
31764;SDS011;18338;53.240;8.798;2023-02-01T01:27:32;17.05;;;3.88;;
31764;SDS011;18338;53.240;8.798;2023-02-01T01:29:58;21.25;;;3.30;;
31764;SDS011;18338;53.240;8.798;2023-02-01T01:32:25;14.75;;;3.22;;
31764;SDS011;18338;53.240;8.798;2023-02-01T01:34:52;18.92;;;4.03;;
31764;SDS011;18338;53.240;8.798;2023-02-01T01:37:18;11.85;;;2.78;;
31764;SDS011;18338;53.240;8.798;2023-02-01T01:39:45;15.82;;;4.03;;
31764;SDS011;18338;53.240;8.798;2023-02-01T01:42:12;13.43;;;2.75;;
31764;SDS011;18338;53.240;8.798;2023-02-01T01:44:59;16.98;;;3.58;;
31764;SDS011;18338;53.240;8.798;2023-02-01T01:47:40;16.50;;;3.90;;
31764;SDS011;18338;53.240;8.798;2023-02-01T01:50:12;18.67;;;4.63;;
31764;SDS011;18338;53.240;8.798;2023-02-01T01:52:43;13.43;;;2.90;;
31764;SDS011;18338;53.240;8.798;2023-02-01T01:55:16;16.17;;;4.07;;
31764;SDS011;18338;53.240;8.798;2023-02-01T01:57:47;16.83;;;3.15;;
31764;SDS011;18338;53.240;8.798;2023-02-01T02:00:18;17.25;;;2.92;;
31764;SDS011;18338;53.240;8.798;2023-02-01T02:02:47;18.35;;;3.50;;
31764;SDS011;18338;53.240;8.798;2023-02-01T02:05:18;17.70;;;3.85;;
31764;SDS011;18338;53.240;8.798;2023-02-01T02:07:46;21.45;;;3.78;;
31764;SDS011;18338;53.240;8.798;2023-02-01T02:10:16;23.05;;;3.90;;
31764;SDS011;18338;53.240;8.798;2023-02-01T02:12:44;13.20;;;2.95;;
31764;SDS011;18338;53.240;8.798;2023-02-01T02:15:14;9.93;;;2.85;;
31764;SDS011;18338;53.240;8.798;2023-02-01T02:23:12;13.52;;;2.80;;
31764;SDS011;18338;53.240;8.798;2023-02-01T02:31:40;16.38;;;3.90;;
31764;SDS011;18338;53.240;8.798;2023-02-01T02:45:41;13.63;;;3.20;;
31764;SDS011;18338;53.240;8.798;2023-02-01T02:51:30;11.35;;;3.05;;
31764;SDS011;18338;53.240;8.798;2023-02-01T02:54:33;13.20;;;2.75;;
31764;SDS011;18338;53.240;8.798;2023-02-01T02:57:58;11.25;;;2.47;;
31764;SDS011;18338;53.240;8.798;2023-02-01T03:00:22;14.07;;;3.25;;
31764;SDS011;18338;53.240;8.798;2023-02-01T03:03:12;14.27;;;2.83;;
31764;SDS011;18338;53.240;8.798;2023-02-01T03:05:58;14.05;;;2.95;;
31764;SDS011;18338;53.240;8.798;2023-02-01T03:08:29;18.50;;;3.63;;
31764;SDS011;18338;53.240;8.798;2023-02-01T03:11:01;15.35;;;3.55;;
31764;SDS011;18338;53.240;8.798;2023-02-01T03:18:55;14.15;;;1.88;;
31764;SDS011;18338;53.240;8.798;2023-02-01T03:21:28;3.23;;;1.17;;
31764;SDS011;18338;53.240;8.798;2023-02-01T03:24:02;6.53;;;1.67;;
31764;SDS011;18338;53.240;8.798;2023-02-01T03:26:34;7.77;;;1.33;;
31764;SDS011;18338;53.240;8.798;2023-02-01T03:29:14;5.53;;;1.23;;
31764;SDS011;18338;53.240;8.798;2023-02-01T03:31:44;7.00;;;1.83;;
31764;SDS011;18338;53.240;8.798;2023-02-01T03:34:11;4.83;;;1.57;;
31764;SDS011;18338;53.240;8.798;2023-02-01T03:36:40;8.53;;;2.23;;
31764;SDS011;18338;53.240;8.798;2023-02-01T03:39:20;9.77;;;2.30;;
31764;SDS011;18338;53.240;8.798;2023-02-01T03:42:08;12.50;;;2.97;;
31764;SDS011;18338;53.240;8.798;2023-02-01T03:44:46;12.60;;;2.83;;
31764;SDS011;18338;53.240;8.798;2023-02-01T03:47:35;16.70;;;3.53;;
31764;SDS011;18338;53.240;8.798;2023-02-01T03:50:06;11.97;;;3.47;;
31764;SDS011;18338;53.240;8.798;2023-02-01T03:52:40;10.33;;;3.30;;
31764;SDS011;18338;53.240;8.798;2023-02-01T03:55:10;11.93;;;3.40;;
31764;SDS011;18338;53.240;8.798;2023-02-01T03:57:46;16.73;;;4.17;;
31764;SDS011;18338;53.240;8.798;2023-02-01T04:00:24;15.40;;;3.05;;
31764;SDS011;18338;53.240;8.798;2023-02-01T04:02:52;10.27;;;3.57;;
31764;SDS011;18338;53.240;8.798;2023-02-01T04:05:19;16.25;;;2.70;;
31764;SDS011;18338;53.240;8.798;2023-02-01T04:07:46;16.03;;;3.37;;
31764;SDS011;18338;53.240;8.798;2023-02-01T04:10:13;11.32;;;3.15;;
31764;SDS011;18338;53.240;8.798;2023-02-01T04:12:43;8.13;;;1.93;;
31764;SDS011;18338;53.240;8.798;2023-02-01T04:15:09;4.93;;;1.65;;
31764;SDS011;18338;53.240;8.798;2023-02-01T04:17:36;8.50;;;2.10;;
31764;SDS011;18338;53.240;8.798;2023-02-01T04:20:05;16.10;;;1.53;;
31764;SDS011;18338;53.240;8.798;2023-02-01T04:22:32;4.73;;;2.07;;
31764;SDS011;18338;53.240;8.798;2023-02-01T04:24:59;7.93;;;1.67;;
31764;SDS011;18338;53.240;8.798;2023-02-01T04:27:26;7.13;;;1.40;;
31764;SDS011;18338;53.240;8.798;2023-02-01T04:29:53;6.30;;;1.63;;
31764;SDS011;18338;53.240;8.798;2023-02-01T04:32:23;4.05;;;1.45;;
31764;SDS011;18338;53.240;8.798;2023-02-01T04:34:49;5.53;;;1.73;;
31764;SDS011;18338;53.240;8.798;2023-02-01T04:37:16;5.73;;;1.43;;
31764;SDS011;18338;53.240;8.798;2023-02-01T04:39:43;8.30;;;1.90;;
31764;SDS011;18338;53.240;8.798;2023-02-01T04:42:10;8.90;;;2.77;;
31764;SDS011;18338;53.240;8.798;2023-02-01T04:44:37;8.63;;;2.27;;
31764;SDS011;18338;53.240;8.798;2023-02-01T04:47:05;14.33;;;2.70;;
31764;SDS011;18338;53.240;8.798;2023-02-01T04:49:32;11.63;;;2.80;;
31764;SDS011;18338;53.240;8.798;2023-02-01T04:51:59;14.80;;;3.20;;
31764;SDS011;18338;53.240;8.798;2023-02-01T04:54:26;12.30;;;3.37;;
31764;SDS011;18338;53.240;8.798;2023-02-01T04:56:52;22.20;;;3.05;;
31764;SDS011;18338;53.240;8.798;2023-02-01T04:59:19;18.00;;;4.87;;
31764;SDS011;18338;53.240;8.798;2023-02-01T05:01:46;16.93;;;3.53;;
31764;SDS011;18338;53.240;8.798;2023-02-01T05:04:14;20.87;;;5.13;;
31764;SDS011;18338;53.240;8.798;2023-02-01T05:06:41;17.53;;;4.37;;
31764;SDS011;18338;53.240;8.798;2023-02-01T05:09:07;18.57;;;4.10;;
31764;SDS011;18338;53.240;8.798;2023-02-01T05:11:34;17.83;;;3.90;;
31764;SDS011;18338;53.240;8.798;2023-02-01T05:14:19;23.67;;;4.77;;
31764;SDS011;18338;53.240;8.798;2023-02-01T05:16:46;22.03;;;5.40;;
31764;SDS011;18338;53.240;8.798;2023-02-01T05:19:12;19.38;;;4.03;;
31764;SDS011;18338;53.240;8.798;2023-02-01T05:21:40;9.70;;;2.83;;
31764;SDS011;18338;53.240;8.798;2023-02-01T05:24:10;11.50;;;3.17;;
31764;SDS011;18338;53.240;8.798;2023-02-01T05:26:40;11.45;;;3.00;;
31764;SDS011;18338;53.240;8.798;2023-02-01T05:29:07;10.43;;;2.83;;
31764;SDS011;18338;53.240;8.798;2023-02-01T05:31:35;8.23;;;2.87;;
31764;SDS011;18338;53.240;8.798;2023-02-01T05:34:04;9.87;;;2.10;;
31764;SDS011;18338;53.240;8.798;2023-02-01T05:36:32;7.90;;;2.50;;
31764;SDS011;18338;53.240;8.798;2023-02-01T05:38:58;16.83;;;2.50;;
31764;SDS011;18338;53.240;8.798;2023-02-01T05:41:25;15.37;;;2.73;;
31764;SDS011;18338;53.240;8.798;2023-02-01T05:43:52;16.13;;;2.70;;
31764;SDS011;18338;53.240;8.798;2023-02-01T05:46:18;12.38;;;3.35;;
31764;SDS011;18338;53.240;8.798;2023-02-01T05:48:45;14.50;;;3.53;;
31764;SDS011;18338;53.240;8.798;2023-02-01T05:51:12;13.17;;;3.90;;
31764;SDS011;18338;53.240;8.798;2023-02-01T05:53:39;10.93;;;3.17;;
31764;SDS011;18338;53.240;8.798;2023-02-01T05:56:06;11.23;;;3.28;;
31764;SDS011;18338;53.240;8.798;2023-02-01T05:58:33;17.45;;;2.30;;
31764;SDS011;18338;53.240;8.798;2023-02-01T06:01:00;11.50;;;3.00;;
31764;SDS011;18338;53.240;8.798;2023-02-01T06:03:27;8.23;;;2.17;;
31764;SDS011;18338;53.240;8.798;2023-02-01T06:05:54;14.40;;;3.42;;
31764;SDS011;18338;53.240;8.798;2023-02-01T06:08:21;12.20;;;3.43;;
31764;SDS011;18338;53.240;8.798;2023-02-01T06:10:50;18.88;;;2.35;;
31764;SDS011;18338;53.240;8.798;2023-02-01T06:13:17;9.87;;;2.50;;
31764;SDS011;18338;53.240;8.798;2023-02-01T06:15:46;13.40;;;3.20;;
31764;SDS011;18338;53.240;8.798;2023-02-01T06:18:13;15.20;;;2.70;;
31764;SDS011;18338;53.240;8.798;2023-02-01T06:20:41;8.47;;;2.80;;
31764;SDS011;18338;53.240;8.798;2023-02-01T06:23:19;18.73;;;3.80;;
31764;SDS011;18338;53.240;8.798;2023-02-01T06:25:51;11.10;;;2.97;;
31764;SDS011;18338;53.240;8.798;2023-02-01T06:28:18;18.20;;;4.35;;
31764;SDS011;18338;53.240;8.798;2023-02-01T06:30:45;16.02;;;3.75;;
31764;SDS011;18338;53.240;8.798;2023-02-01T06:33:18;9.03;;;2.47;;
31764;SDS011;18338;53.240;8.798;2023-02-01T06:35:45;15.23;;;3.15;;
31764;SDS011;18338;53.240;8.798;2023-02-01T06:38:16;21.30;;;4.78;;
31764;SDS011;18338;53.240;8.798;2023-02-01T06:41:23;40.38;;;17.35;;
31764;SDS011;18338;53.240;8.798;2023-02-01T06:53:42;16.20;;;5.23;;
31764;SDS011;18338;53.240;8.798;2023-02-01T06:56:09;17.58;;;7.95;;
31764;SDS011;18338;53.240;8.798;2023-02-01T06:58:36;21.92;;;13.32;;
31764;SDS011;18338;53.240;8.798;2023-02-01T07:01:05;20.33;;;10.13;;
31764;SDS011;18338;53.240;8.798;2023-02-01T07:03:33;20.00;;;7.82;;
31764;SDS011;18338;53.240;8.798;2023-02-01T07:06:00;19.70;;;7.00;;
31764;SDS011;18338;53.240;8.798;2023-02-01T07:08:27;23.17;;;6.57;;
31764;SDS011;18338;53.240;8.798;2023-02-01T07:10:56;17.55;;;5.13;;
31764;SDS011;18338;53.240;8.798;2023-02-01T07:13:23;21.80;;;5.72;;
31764;SDS011;18338;53.240;8.798;2023-02-01T07:15:50;21.65;;;5.70;;
31764;SDS011;18338;53.240;8.798;2023-02-01T07:18:17;13.93;;;3.78;;
31764;SDS011;18338;53.240;8.798;2023-02-01T07:20:46;19.00;;;4.47;;
31764;SDS011;18338;53.240;8.798;2023-02-01T07:23:16;18.48;;;4.13;;
31764;SDS011;18338;53.240;8.798;2023-02-01T07:25:43;18.48;;;4.32;;
31764;SDS011;18338;53.240;8.798;2023-02-01T07:28:13;21.20;;;4.90;;
31764;SDS011;18338;53.240;8.798;2023-02-01T07:30:40;17.37;;;4.60;;
31764;SDS011;18338;53.240;8.798;2023-02-01T07:33:07;16.77;;;4.00;;
31764;SDS011;18338;53.240;8.798;2023-02-01T07:35:34;17.53;;;4.13;;
31764;SDS011;18338;53.240;8.798;2023-02-01T07:38:01;21.88;;;4.72;;
31764;SDS011;18338;53.240;8.798;2023-02-01T07:40:28;12.88;;;3.60;;
31764;SDS011;18338;53.240;8.798;2023-02-01T07:42:56;14.40;;;3.92;;
31764;SDS011;18338;53.240;8.798;2023-02-01T07:45:23;18.45;;;4.20;;
31764;SDS011;18338;53.240;8.798;2023-02-01T07:47:51;19.40;;;4.03;;
31764;SDS011;18338;53.240;8.798;2023-02-01T07:50:18;19.60;;;4.25;;
31764;SDS011;18338;53.240;8.798;2023-02-01T07:52:45;24.03;;;4.47;;
31764;SDS011;18338;53.240;8.798;2023-02-01T07:55:12;22.27;;;4.82;;
31764;SDS011;18338;53.240;8.798;2023-02-01T07:57:39;19.25;;;4.22;;
31764;SDS011;18338;53.240;8.798;2023-02-01T08:00:06;13.80;;;3.28;;
31764;SDS011;18338;53.240;8.798;2023-02-01T08:02:54;18.77;;;3.33;;
31764;SDS011;18338;53.240;8.798;2023-02-01T08:05:20;20.15;;;4.78;;
31764;SDS011;18338;53.240;8.798;2023-02-01T08:07:50;11.48;;;3.33;;
31764;SDS011;18338;53.240;8.798;2023-02-01T08:10:17;14.68;;;3.08;;
31764;SDS011;18338;53.240;8.798;2023-02-01T08:12:45;16.77;;;3.75;;
31764;SDS011;18338;53.240;8.798;2023-02-01T08:15:17;19.60;;;3.95;;
31764;SDS011;18338;53.240;8.798;2023-02-01T08:17:48;22.83;;;3.95;;
31764;SDS011;18338;53.240;8.798;2023-02-01T08:20:19;18.60;;;4.75;;
31764;SDS011;18338;53.240;8.798;2023-02-01T08:22:49;16.88;;;3.95;;
31764;SDS011;18338;53.240;8.798;2023-02-01T08:25:19;17.05;;;3.90;;
31764;SDS011;18338;53.240;8.798;2023-02-01T08:27:47;20.17;;;4.47;;
31764;SDS011;18338;53.240;8.798;2023-02-01T08:30:13;15.75;;;3.03;;
31764;SDS011;18338;53.240;8.798;2023-02-01T08:32:40;17.50;;;3.83;;
31764;SDS011;18338;53.240;8.798;2023-02-01T08:35:07;18.52;;;3.90;;
31764;SDS011;18338;53.240;8.798;2023-02-01T08:37:35;17.35;;;3.50;;
31764;SDS011;18338;53.240;8.798;2023-02-01T08:40:03;14.10;;;3.40;;
31764;SDS011;18338;53.240;8.798;2023-02-01T08:42:30;17.42;;;3.70;;
31764;SDS011;18338;53.240;8.798;2023-02-01T08:45:15;19.20;;;2.97;;
31764;SDS011;18338;53.240;8.798;2023-02-01T08:47:46;16.77;;;3.50;;
31764;SDS011;18338;53.240;8.798;2023-02-01T08:50:14;10.15;;;2.55;;
31764;SDS011;18338;53.240;8.798;2023-02-01T08:52:41;11.73;;;2.33;;
31764;SDS011;18338;53.240;8.798;2023-02-01T08:55:08;12.10;;;2.80;;
31764;SDS011;18338;53.240;8.798;2023-02-01T08:57:36;13.88;;;2.90;;
31764;SDS011;18338;53.240;8.798;2023-02-01T09:00:03;9.73;;;2.40;;
31764;SDS011;18338;53.240;8.798;2023-02-01T09:02:32;13.82;;;3.78;;
31764;SDS011;18338;53.240;8.798;2023-02-01T09:04:59;14.65;;;4.00;;
31764;SDS011;18338;53.240;8.798;2023-02-01T09:07:26;12.45;;;2.85;;
31764;SDS011;18338;53.240;8.798;2023-02-01T09:09:52;15.30;;;2.65;;
31764;SDS011;18338;53.240;8.798;2023-02-01T09:12:20;13.90;;;2.78;;
31764;SDS011;18338;53.240;8.798;2023-02-01T09:14:47;17.45;;;3.50;;
31764;SDS011;18338;53.240;8.798;2023-02-01T09:17:14;13.38;;;3.00;;
31764;SDS011;18338;53.240;8.798;2023-02-01T09:19:42;14.55;;;3.33;;
31764;SDS011;18338;53.240;8.798;2023-02-01T09:22:09;13.45;;;2.83;;
31764;SDS011;18338;53.240;8.798;2023-02-01T09:24:36;9.90;;;2.42;;
31764;SDS011;18338;53.240;8.798;2023-02-01T09:27:02;13.00;;;2.97;;
31764;SDS011;18338;53.240;8.798;2023-02-01T09:32:56;12.73;;;2.22;;
31764;SDS011;18338;53.240;8.798;2023-02-01T09:35:24;13.73;;;3.10;;
31764;SDS011;18338;53.240;8.798;2023-02-01T09:37:54;14.70;;;3.38;;
31764;SDS011;18338;53.240;8.798;2023-02-01T09:40:25;15.68;;;4.07;;
31764;SDS011;18338;53.240;8.798;2023-02-01T09:43:08;10.98;;;2.67;;
31764;SDS011;18338;53.240;8.798;2023-02-01T09:48:56;13.73;;;3.03;;
31764;SDS011;18338;53.240;8.798;2023-02-01T09:51:36;11.32;;;3.00;;
31764;SDS011;18338;53.240;8.798;2023-02-01T09:54:53;15.63;;;2.92;;
31764;SDS011;18338;53.240;8.798;2023-02-01T09:57:45;12.30;;;2.28;;
31764;SDS011;18338;53.240;8.798;2023-02-01T10:00:38;12.30;;;3.15;;
31764;SDS011;18338;53.240;8.798;2023-02-01T10:03:35;16.83;;;3.47;;
31764;SDS011;18338;53.240;8.798;2023-02-01T10:09:50;14.90;;;3.22;;
31764;SDS011;18338;53.240;8.798;2023-02-01T10:13:01;11.90;;;3.42;;
31764;SDS011;18338;53.240;8.798;2023-02-01T10:15:43;12.85;;;3.10;;
31764;SDS011;18338;53.240;8.798;2023-02-01T10:21:58;14.48;;;2.67;;
31764;SDS011;18338;53.240;8.798;2023-02-01T10:27:35;13.60;;;2.40;;
31764;SDS011;18338;53.240;8.798;2023-02-01T10:30:21;15.13;;;3.60;;
31764;SDS011;18338;53.240;8.798;2023-02-01T10:33:03;15.18;;;3.08;;
31764;SDS011;18338;53.240;8.798;2023-02-01T10:35:47;15.38;;;3.50;;
31764;SDS011;18338;53.240;8.798;2023-02-01T10:38:38;16.92;;;3.35;;
31764;SDS011;18338;53.240;8.798;2023-02-01T10:41:23;13.10;;;2.97;;
31764;SDS011;18338;53.240;8.798;2023-02-01T10:43:57;8.23;;;2.55;;
31764;SDS011;18338;53.240;8.798;2023-02-01T10:46:25;12.82;;;3.08;;
31764;SDS011;18338;53.240;8.798;2023-02-01T10:48:53;8.65;;;3.33;;
31764;SDS011;18338;53.240;8.798;2023-02-01T10:51:23;12.40;;;3.70;;
31764;SDS011;18338;53.240;8.798;2023-02-01T10:53:55;11.02;;;3.85;;
31764;SDS011;18338;53.240;8.798;2023-02-01T10:56:27;8.55;;;2.40;;
31764;SDS011;18338;53.240;8.798;2023-02-01T10:59:02;17.25;;;3.80;;
31764;SDS011;18338;53.240;8.798;2023-02-01T11:01:36;12.23;;;2.85;;
31764;SDS011;18338;53.240;8.798;2023-02-01T11:04:13;14.13;;;3.08;;
31764;SDS011;18338;53.240;8.798;2023-02-01T11:06:50;10.18;;;2.35;;
31764;SDS011;18338;53.240;8.798;2023-02-01T11:09:41;15.65;;;3.00;;
31764;SDS011;18338;53.240;8.798;2023-02-01T11:12:28;15.90;;;3.07;;
31764;SDS011;18338;53.240;8.798;2023-02-01T11:15:00;11.33;;;3.53;;
31764;SDS011;18338;53.240;8.798;2023-02-01T11:17:44;14.88;;;3.47;;
31764;SDS011;18338;53.240;8.798;2023-02-01T11:20:16;11.13;;;3.00;;
31764;SDS011;18338;53.240;8.798;2023-02-01T11:22:46;12.53;;;3.97;;
31764;SDS011;18338;53.240;8.798;2023-02-01T11:25:14;10.55;;;2.70;;
31764;SDS011;18338;53.240;8.798;2023-02-01T11:27:43;13.73;;;2.87;;
31764;SDS011;18338;53.240;8.798;2023-02-01T11:33:01;13.27;;;3.33;;
31764;SDS011;18338;53.240;8.798;2023-02-01T11:35:31;7.75;;;3.10;;
31764;SDS011;18338;53.240;8.798;2023-02-01T11:38:00;11.07;;;5.03;;
31764;SDS011;18338;53.240;8.798;2023-02-01T11:40:37;17.17;;;4.07;;
31764;SDS011;18338;53.240;8.798;2023-02-01T11:43:15;8.23;;;2.60;;
31764;SDS011;18338;53.240;8.798;2023-02-01T11:45:58;13.38;;;3.33;;
31764;SDS011;18338;53.240;8.798;2023-02-01T11:48:27;8.57;;;2.27;;
31764;SDS011;18338;53.240;8.798;2023-02-01T11:51:15;7.57;;;1.87;;
31764;SDS011;18338;53.240;8.798;2023-02-01T11:57:03;10.73;;;1.90;;
31764;SDS011;18338;53.240;8.798;2023-02-01T12:05:23;10.02;;;2.05;;
31764;SDS011;18338;53.240;8.798;2023-02-01T12:10:43;1.37;;;0.43;;
31764;SDS011;18338;53.240;8.798;2023-02-01T12:32:46;1.73;;;0.80;;
31764;SDS011;18338;53.240;8.798;2023-02-01T12:41:02;1.07;;;0.60;;
31764;SDS011;18338;53.240;8.798;2023-02-01T12:43:55;0.70;;;0.50;;
31764;SDS011;18338;53.240;8.798;2023-02-01T12:46:33;0.60;;;0.50;;
31764;SDS011;18338;53.240;8.798;2023-02-01T12:49:17;1.43;;;0.50;;
31764;SDS011;18338;53.240;8.798;2023-02-01T12:51:52;1.60;;;0.60;;
31764;SDS011;18338;53.240;8.798;2023-02-01T12:54:43;1.13;;;0.60;;
31764;SDS011;18338;53.240;8.798;2023-02-01T12:57:27;1.03;;;0.60;;
31764;SDS011;18338;53.240;8.798;2023-02-01T13:02:50;0.93;;;0.40;;
31764;SDS011;18338;53.240;8.798;2023-02-01T13:05:22;0.73;;;0.50;;
31764;SDS011;18338;53.240;8.798;2023-02-01T13:08:02;1.27;;;0.50;;
31764;SDS011;18338;53.240;8.798;2023-02-01T13:10:43;2.27;;;0.50;;
31764;SDS011;18338;53.240;8.798;2023-02-01T13:21:46;1.20;;;0.55;;
31764;SDS011;18338;53.240;8.798;2023-02-01T13:24:21;1.38;;;0.60;;
31764;SDS011;18338;53.240;8.798;2023-02-01T13:26:59;1.35;;;0.38;;
31764;SDS011;18338;53.240;8.798;2023-02-01T13:29:28;2.78;;;0.40;;
31764;SDS011;18338;53.240;8.798;2023-02-01T13:35:28;2.60;;;0.65;;
31764;SDS011;18338;53.240;8.798;2023-02-01T13:41:39;3.75;;;0.60;;
31764;SDS011;18338;53.240;8.798;2023-02-01T13:44:34;3.10;;;0.90;;
31764;SDS011;18338;53.240;8.798;2023-02-01T13:49:57;6.22;;;1.25;;
31764;SDS011;18338;53.240;8.798;2023-02-01T14:06:16;3.97;;;0.85;;
31764;SDS011;18338;53.240;8.798;2023-02-01T14:09:09;6.03;;;1.58;;
31764;SDS011;18338;53.240;8.798;2023-02-01T14:11:47;7.95;;;1.35;;
31764;SDS011;18338;53.240;8.798;2023-02-01T14:17:16;8.98;;;3.00;;
31764;SDS011;18338;53.240;8.798;2023-02-01T14:19:39;4.68;;;1.58;;
31764;SDS011;18338;53.240;8.798;2023-02-01T14:24:55;7.15;;;1.60;;
31764;SDS011;18338;53.240;8.798;2023-02-01T14:27:24;8.88;;;2.10;;
31764;SDS011;18338;53.240;8.798;2023-02-01T14:29:56;6.90;;;1.60;;
31764;SDS011;18338;53.240;8.798;2023-02-01T14:32:33;8.68;;;1.58;;
31764;SDS011;18338;53.240;8.798;2023-02-01T14:35:17;5.95;;;1.88;;
31764;SDS011;18338;53.240;8.798;2023-02-01T14:37:50;7.78;;;1.33;;
31764;SDS011;18338;53.240;8.798;2023-02-01T14:40:23;8.07;;;1.20;;
31764;SDS011;18338;53.240;8.798;2023-02-01T14:42:53;9.13;;;1.48;;
31764;SDS011;18338;53.240;8.798;2023-02-01T14:51:00;5.63;;;1.52;;
31764;SDS011;18338;53.240;8.798;2023-02-01T14:53:32;9.18;;;2.08;;
31764;SDS011;18338;53.240;8.798;2023-02-01T14:56:12;8.07;;;2.17;;
31764;SDS011;18338;53.240;8.798;2023-02-01T14:58:51;12.98;;;2.35;;
31764;SDS011;18338;53.240;8.798;2023-02-01T15:01:28;8.73;;;1.77;;
31764;SDS011;18338;53.240;8.798;2023-02-01T15:04:06;17.10;;;3.10;;
31764;SDS011;18338;53.240;8.798;2023-02-01T15:09:25;13.38;;;2.72;;
31764;SDS011;18338;53.240;8.798;2023-02-01T15:12:00;10.07;;;2.67;;
31764;SDS011;18338;53.240;8.798;2023-02-01T15:14:38;10.73;;;2.05;;
31764;SDS011;18338;53.240;8.798;2023-02-01T15:17:27;16.73;;;3.08;;
31764;SDS011;18338;53.240;8.798;2023-02-01T15:20:03;12.00;;;2.83;;
31764;SDS011;18338;53.240;8.798;2023-02-01T15:25:26;10.35;;;2.85;;
31764;SDS011;18338;53.240;8.798;2023-02-01T15:27:54;9.93;;;2.85;;
31764;SDS011;18338;53.240;8.798;2023-02-01T15:33:16;10.77;;;1.98;;
31764;SDS011;18338;53.240;8.798;2023-02-01T15:35:49;13.83;;;2.47;;
31764;SDS011;18338;53.240;8.798;2023-02-01T15:44:28;9.43;;;2.23;;
31764;SDS011;18338;53.240;8.798;2023-02-01T15:47:16;11.23;;;1.90;;
31764;SDS011;18338;53.240;8.798;2023-02-01T15:49:47;12.23;;;2.03;;
31764;SDS011;18338;53.240;8.798;2023-02-01T15:54:48;15.13;;;2.57;;
31764;SDS011;18338;53.240;8.798;2023-02-01T15:57:19;10.67;;;2.47;;
31764;SDS011;18338;53.240;8.798;2023-02-01T15:59:52;8.20;;;2.53;;
31764;SDS011;18338;53.240;8.798;2023-02-01T16:02:29;13.90;;;3.27;;
31764;SDS011;18338;53.240;8.798;2023-02-01T16:05:05;15.93;;;3.10;;
31764;SDS011;18338;53.240;8.798;2023-02-01T16:08:27;12.63;;;2.87;;
31764;SDS011;18338;53.240;8.798;2023-02-01T16:10:50;20.13;;;3.60;;
31764;SDS011;18338;53.240;8.798;2023-02-01T16:13:19;13.77;;;3.37;;
31764;SDS011;18338;53.240;8.798;2023-02-01T16:15:47;11.27;;;2.37;;
31764;SDS011;18338;53.240;8.798;2023-02-01T16:18:15;15.37;;;2.80;;
31764;SDS011;18338;53.240;8.798;2023-02-01T16:20:44;11.20;;;2.45;;
31764;SDS011;18338;53.240;8.798;2023-02-01T16:23:11;9.70;;;2.28;;
31764;SDS011;18338;53.240;8.798;2023-02-01T16:25:39;9.23;;;2.70;;
31764;SDS011;18338;53.240;8.798;2023-02-01T16:28:06;12.10;;;2.30;;
31764;SDS011;18338;53.240;8.798;2023-02-01T16:30:34;9.73;;;1.80;;
31764;SDS011;18338;53.240;8.798;2023-02-01T16:33:01;7.53;;;2.27;;
31764;SDS011;18338;53.240;8.798;2023-02-01T16:35:32;6.20;;;1.97;;
31764;SDS011;18338;53.240;8.798;2023-02-01T16:38:13;11.13;;;2.20;;
31764;SDS011;18338;53.240;8.798;2023-02-01T16:40:42;10.17;;;2.73;;
31764;SDS011;18338;53.240;8.798;2023-02-01T16:43:22;11.87;;;2.03;;
31764;SDS011;18338;53.240;8.798;2023-02-01T16:45:51;11.23;;;2.47;;
31764;SDS011;18338;53.240;8.798;2023-02-01T16:50:55;14.93;;;3.17;;
31764;SDS011;18338;53.240;8.798;2023-02-01T16:53:24;10.93;;;2.70;;
31764;SDS011;18338;53.240;8.798;2023-02-01T16:55:53;6.50;;;2.85;;
31764;SDS011;18338;53.240;8.798;2023-02-01T16:58:20;14.87;;;3.80;;
31764;SDS011;18338;53.240;8.798;2023-02-01T17:00:47;13.75;;;3.00;;
31764;SDS011;18338;53.240;8.798;2023-02-01T17:03:14;10.00;;;1.73;;
31764;SDS011;18338;53.240;8.798;2023-02-01T17:05:43;13.97;;;3.80;;
31764;SDS011;18338;53.240;8.798;2023-02-01T17:08:16;13.53;;;2.87;;
31764;SDS011;18338;53.240;8.798;2023-02-01T17:10:48;9.50;;;1.87;;
31764;SDS011;18338;53.240;8.798;2023-02-01T17:13:15;17.07;;;4.17;;
31764;SDS011;18338;53.240;8.798;2023-02-01T17:15:45;13.37;;;3.97;;
31764;SDS011;18338;53.240;8.798;2023-02-01T17:18:24;15.35;;;3.75;;
31764;SDS011;18338;53.240;8.798;2023-02-01T17:20:57;19.40;;;3.20;;
31764;SDS011;18338;53.240;8.798;2023-02-01T17:23:25;16.38;;;3.22;;
31764;SDS011;18338;53.240;8.798;2023-02-01T17:25:52;13.07;;;2.80;;
31764;SDS011;18338;53.240;8.798;2023-02-01T17:28:20;14.97;;;2.87;;
31764;SDS011;18338;53.240;8.798;2023-02-01T17:30:46;9.33;;;2.87;;
31764;SDS011;18338;53.240;8.798;2023-02-01T17:35:49;12.63;;;2.00;;
31764;SDS011;18338;53.240;8.798;2023-02-01T17:38:17;12.10;;;2.43;;
31764;SDS011;18338;53.240;8.798;2023-02-01T17:40:44;10.83;;;2.13;;
31764;SDS011;18338;53.240;8.798;2023-02-01T17:43:14;13.00;;;2.83;;
31764;SDS011;18338;53.240;8.798;2023-02-01T17:45:45;13.20;;;2.67;;
31764;SDS011;18338;53.240;8.798;2023-02-01T17:48:20;11.83;;;4.10;;
31764;SDS011;18338;53.240;8.798;2023-02-01T17:50:48;11.10;;;3.20;;
31764;SDS011;18338;53.240;8.798;2023-02-01T17:53:20;12.57;;;3.00;;